createdAt,value
2018-09-13T00:01:43.420Z,99628.05
2018-09-13T00:04:11.964Z,99625.86
2018-09-13T00:06:40.489Z,99625.86
2018-09-13T00:09:09.999Z,99629.64
2018-09-13T00:11:38.922Z,99625.07
2018-09-13T00:14:07.527Z,99621.92
2018-09-13T00:16:42.700Z,99621.84
2018-09-13T00:19:18.330Z,99612.27
2018-09-13T00:21:53.946Z,99611.27
2018-09-13T00:24:28.531Z,99614.67
2018-09-13T00:27:02.741Z,99608.72
2018-09-13T00:29:36.522Z,99612.48
2018-09-13T00:32:05.264Z,99611.94
2018-09-13T00:34:33.790Z,99609.26
2018-09-13T00:37:02.526Z,99605.53
2018-09-13T00:39:31.031Z,99601.27
2018-09-13T00:41:59.565Z,99597.20
2018-09-13T00:44:28.066Z,99602.41
2018-09-13T00:46:56.612Z,99595.66
2018-09-13T00:49:25.161Z,99597.64
2018-09-13T00:51:53.773Z,99599.16
2018-09-13T00:54:22.778Z,99603.70
2018-09-13T00:56:51.320Z,99599.89
2018-09-13T00:59:19.833Z,99604.37
2018-09-13T01:01:48.364Z,99609.41
2018-09-13T01:04:16.923Z,99610.59
2018-09-13T01:06:45.489Z,99615.77
2018-09-13T01:09:13.993Z,99610.23
2018-09-13T01:11:42.566Z,99605.31
2018-09-13T01:14:11.076Z,99601.19
2018-09-13T01:16:39.645Z,99599.91
2018-09-13T01:19:08.158Z,99606.14
2018-09-13T01:21:36.720Z,99605.43
2018-09-13T01:24:05.273Z,99600.02
2018-09-13T01:26:33.824Z,99597.95
2018-09-13T01:29:02.417Z,99592.27
2018-09-13T01:31:30.932Z,99588.95
2018-09-13T01:33:59.476Z,99582.66
2018-09-13T01:36:27.991Z,99586.67
2018-09-13T01:38:56.824Z,99588.93
2018-09-13T01:41:25.405Z,99588.33
2018-09-13T01:43:53.991Z,99593.26
2018-09-13T01:46:22.538Z,99602.54
2018-09-13T01:48:51.092Z,99609.77
2018-09-13T01:51:19.609Z,99600.75
2018-09-13T01:53:48.159Z,99601.22
2018-09-13T01:56:16.673Z,99599.89
2018-09-13T01:58:45.229Z,99611.19
2018-09-13T02:01:13.732Z,99606.16
2018-09-13T02:03:42.297Z,99607.46
2018-09-13T02:06:10.849Z,99604.96
2018-09-13T02:08:39.397Z,99603.05
2018-09-13T02:11:07.912Z,99596.90
2018-09-13T02:13:36.461Z,99598.72
2018-09-13T02:16:04.997Z,99589.66
2018-09-13T02:18:33.604Z,99599.80
2018-09-13T02:21:02.128Z,99592.78
2018-09-13T02:23:30.682Z,99588.95
2018-09-13T02:25:59.193Z,99594.03
2018-09-13T02:28:27.752Z,99593.19
2018-09-13T02:30:56.277Z,99586.41
2018-09-13T02:33:24.875Z,99588.57
2018-09-13T02:35:53.437Z,99584.49
2018-09-13T02:38:21.981Z,99581.71
2018-09-13T02:40:50.598Z,99576.28
2018-09-13T02:43:19.140Z,99574.02
2018-09-13T02:45:47.654Z,99568.25
2018-09-13T02:48:16.213Z,99570.08
2018-09-13T02:50:44.733Z,99569.44
2018-09-13T02:53:13.285Z,99572.81
2018-09-13T02:55:41.792Z,99577.81
2018-09-13T02:58:10.358Z,99574.61
2018-09-13T03:00:38.911Z,99564.76
2018-09-13T03:03:07.460Z,99561.85
2018-09-13T03:05:36.009Z,99567.64
2018-09-13T03:08:04.582Z,99571.48
2018-09-13T03:10:33.106Z,99576.78
2018-09-13T03:13:01.661Z,99568.00
2018-09-13T03:15:30.191Z,99569.70
2018-09-13T03:17:58.771Z,99566.93
2018-09-13T03:20:27.376Z,99562.25
2018-09-13T03:22:55.954Z,99559.60
2018-09-13T03:25:24.509Z,99547.44
2018-09-13T03:27:53.185Z,99549.84
2018-09-13T03:30:21.796Z,99548.39
2018-09-13T03:32:50.444Z,99539.50
2018-09-13T03:35:19.252Z,99548.30
2018-09-13T03:37:47.772Z,99546.84
2018-09-13T03:40:16.338Z,99551.03
2018-09-13T03:42:44.852Z,99550.33
2018-09-13T03:45:13.440Z,99553.18
2018-09-13T03:47:42.028Z,99554.67
2018-09-13T03:50:10.628Z,99555.16
2018-09-13T03:52:39.144Z,99552.58
2018-09-13T03:55:07.733Z,99565.56
2018-09-13T03:57:36.447Z,99563.42
2018-09-13T04:00:05.154Z,99569.65
2018-09-13T04:02:33.676Z,99570.51
2018-09-13T04:05:02.272Z,99559.47
2018-09-13T04:07:30.795Z,99565.72
2018-09-13T04:09:59.349Z,99567.53
2018-09-13T04:12:27.875Z,99561.98
2018-09-13T04:14:56.438Z,99566.83
2018-09-13T04:17:24.987Z,99561.39
2018-09-13T04:19:53.630Z,99555.28
2018-09-13T04:22:22.165Z,99564.03
2018-09-13T04:24:50.717Z,99553.58
2018-09-13T04:27:19.236Z,99559.94
2018-09-13T04:29:47.784Z,99559.95
2018-09-13T04:32:16.293Z,99559.13
2018-09-13T04:34:44.841Z,99555.52
2018-09-13T04:37:13.362Z,99550.09
2018-09-13T04:39:41.909Z,99542.64
2018-09-13T04:42:10.432Z,99542.63
2018-09-13T04:44:38.979Z,99536.37
2018-09-13T04:47:07.496Z,99534.70
2018-09-13T04:49:36.057Z,99536.24
2018-09-13T04:52:06.045Z,99533.24
2018-09-13T04:54:35.090Z,99542.64
2018-09-13T04:57:03.741Z,99545.98
2018-09-13T04:59:34.463Z,99537.58
2018-09-13T05:02:03.117Z,99534.31
2018-09-13T05:04:31.713Z,99523.86
2018-09-13T05:07:00.333Z,99531.81
2018-09-13T05:09:33.417Z,99536.14
2018-09-13T05:12:01.940Z,99540.48
2018-09-13T05:14:38.382Z,99542.64
2018-09-13T05:17:07.256Z,99539.88
2018-09-13T05:19:35.825Z,99543.70
2018-09-13T05:22:04.350Z,99546.13
2018-09-13T05:24:33.425Z,99548.63
2018-09-13T05:27:03.914Z,99552.14
2018-09-13T05:29:32.925Z,99556.34
2018-09-13T05:32:01.485Z,99554.17
2018-09-13T05:34:30.014Z,99555.12
2018-09-13T05:36:58.556Z,99554.67
2018-09-13T05:39:27.350Z,99554.42
2018-09-13T05:41:56.622Z,99553.95
2018-09-13T05:44:25.195Z,99567.30
2018-09-13T05:46:53.748Z,99569.47
2018-09-13T05:49:22.260Z,99569.94
2018-09-13T05:51:50.821Z,99569.09
2018-09-13T05:54:19.349Z,99578.50
2018-09-13T05:56:47.916Z,99560.68
2018-09-13T05:59:16.431Z,99556.47
2018-09-13T06:01:44.993Z,99561.50
2018-09-13T06:04:13.540Z,99566.29
2018-09-13T06:06:42.945Z,99571.14
2018-09-13T06:09:11.454Z,99570.53
2018-09-13T06:11:40.008Z,99580.28
2018-09-13T06:14:08.529Z,99589.56
2018-09-13T06:16:37.406Z,99598.55
2018-09-13T06:19:05.985Z,99594.19
2018-09-13T06:21:34.534Z,99594.00
2018-09-13T06:24:03.065Z,99597.02
2018-09-13T06:26:31.619Z,99596.16
2018-09-13T06:29:00.164Z,99588.50
2018-09-13T06:31:28.786Z,99583.61
2018-09-13T06:33:57.328Z,99576.34
2018-09-13T06:36:25.903Z,99575.83
2018-09-13T06:38:54.450Z,99581.22
2018-09-13T06:41:23.014Z,99583.02
2018-09-13T06:43:51.581Z,99587.96
2018-09-13T06:46:20.159Z,99583.23
2018-09-13T06:48:48.732Z,99588.53
2018-09-13T06:51:17.288Z,99589.23
2018-09-13T06:53:45.795Z,99593.58
2018-09-13T06:56:14.352Z,99591.17
2018-09-13T06:58:42.876Z,99591.61
2018-09-13T07:01:11.497Z,99591.52
2018-09-13T07:03:40.075Z,99584.88
2018-09-13T07:06:08.701Z,99588.33
2018-09-13T07:08:37.243Z,99581.94
2018-09-13T07:11:05.926Z,99589.01
2018-09-13T07:13:34.476Z,99583.51
2018-09-13T07:16:03.032Z,99587.22
2018-09-13T07:18:31.557Z,99582.24
2018-09-13T07:21:00.126Z,99579.16
2018-09-13T07:23:28.723Z,99586.52
2018-09-13T07:25:57.257Z,99584.41
2018-09-13T07:28:25.849Z,99587.52
2018-09-13T07:30:54.418Z,99582.61
2018-09-13T07:33:22.958Z,99584.27
2018-09-13T07:35:51.477Z,99585.68
2018-09-13T07:38:20.038Z,99591.63
2018-09-13T07:40:48.573Z,99590.30
2018-09-13T07:43:17.215Z,99585.81
2018-09-13T07:45:45.785Z,99580.41
2018-09-13T07:48:14.333Z,99586.09
2018-09-13T07:50:42.845Z,99583.45
2018-09-13T07:53:11.430Z,99573.21
2018-09-13T07:55:40.015Z,99575.25
2018-09-13T07:58:08.652Z,99573.55
2018-09-13T08:00:37.220Z,99580.77
2018-09-13T08:03:06.052Z,99574.83
2018-09-13T08:05:34.618Z,99573.09
2018-09-13T08:08:03.177Z,99595.47
2018-09-13T08:10:31.701Z,99603.45
2018-09-13T08:13:00.366Z,99601.69
2018-09-13T08:15:28.893Z,99606.52
2018-09-13T08:17:57.432Z,99612.06
2018-09-13T08:20:25.957Z,99618.85
2018-09-13T08:22:54.848Z,99619.12
2018-09-13T08:25:23.357Z,99630.67
2018-09-13T08:27:51.904Z,99635.63
2018-09-13T08:30:20.441Z,99639.59
2018-09-13T08:32:49.006Z,99639.20
2018-09-13T08:35:17.516Z,99636.80
2018-09-13T08:37:46.061Z,99625.78
2018-09-13T08:40:14.592Z,99636.98
2018-09-13T08:42:43.144Z,99636.12
2018-09-13T08:45:11.672Z,99636.14
2018-09-13T08:47:40.355Z,99637.67
2018-09-13T08:50:08.841Z,99643.35
2018-09-13T08:52:37.401Z,99639.11
2018-09-13T08:55:09.306Z,99630.16
2018-09-13T08:57:38.145Z,99626.93
2018-09-13T09:00:08.881Z,99628.86
2018-09-13T09:02:37.445Z,99639.84
2018-09-13T09:05:06.321Z,99640.77
2018-09-13T09:07:35.373Z,99644.89
2018-09-13T09:10:06.924Z,99634.60
2018-09-13T09:12:35.534Z,99626.25
2018-09-13T09:15:04.160Z,99637.02
2018-09-13T09:17:32.740Z,99643.72
2018-09-13T09:20:01.286Z,99644.13
2018-09-13T09:22:29.811Z,99637.33
2018-09-13T09:24:58.379Z,99641.70
2018-09-13T09:27:27.525Z,99640.50
2018-09-13T09:29:56.211Z,99638.30
2018-09-13T09:32:25.092Z,99638.66
2018-09-13T09:34:53.719Z,99640.38
2018-09-13T09:37:22.234Z,99634.58
2018-09-13T09:39:50.829Z,99626.95
2018-09-13T09:42:19.325Z,99628.95
2018-09-13T09:44:47.873Z,99639.78
2018-09-13T09:47:16.417Z,99645.91
2018-09-13T09:49:44.972Z,99645.50
2018-09-13T09:52:13.557Z,99642.53
2018-09-13T09:54:42.068Z,99639.62
2018-09-13T09:57:10.635Z,99639.58
2018-09-13T09:59:39.152Z,99640.72
2018-09-13T10:02:12.690Z,99625.55
2018-09-13T10:04:41.340Z,99623.20
2018-09-13T10:07:09.829Z,99618.73
2018-09-13T10:09:38.467Z,99614.98
2018-09-13T10:12:06.961Z,99617.81
2018-09-13T10:14:35.512Z,99617.36
2018-09-13T10:17:09.350Z,99617.18
2018-09-13T10:19:42.901Z,99626.16
2018-09-13T10:22:16.756Z,99631.78
2018-09-13T10:24:50.500Z,99634.84
2018-09-13T10:27:24.479Z,99638.09
2018-09-13T10:29:58.236Z,99634.09
2018-09-13T10:32:31.931Z,99640.72
2018-09-13T10:35:05.723Z,99637.16
2018-09-13T10:37:40.385Z,99635.06
2018-09-13T10:40:14.389Z,99636.00
2018-09-13T10:42:48.037Z,99633.63
2018-09-13T10:45:21.917Z,99633.72
2018-09-13T10:47:56.924Z,99632.07
2018-09-13T10:50:25.042Z,99634.80
2018-09-13T10:53:04.863Z,99630.63
2018-09-13T10:55:33.486Z,99627.80
2018-09-13T10:58:02.025Z,99626.44
2018-09-13T11:00:30.690Z,99624.05
2018-09-13T11:02:59.825Z,99614.19
2018-09-13T11:05:28.458Z,99622.95
2018-09-13T11:07:57.033Z,99627.20
2018-09-13T11:10:25.807Z,99618.56
2018-09-13T11:12:59.441Z,99615.77
2018-09-13T11:15:35.989Z,99612.63
2018-09-13T11:18:05.953Z,99605.59
2018-09-13T11:20:34.765Z,99600.88
2018-09-13T11:23:03.288Z,99600.02
2018-09-13T11:25:31.847Z,99605.24
2018-09-13T11:28:00.370Z,99602.14
2018-09-13T11:30:28.977Z,99602.45
2018-09-13T11:32:57.773Z,99600.80
2018-09-13T11:35:36.933Z,99603.23
2018-09-13T11:38:05.649Z,99609.77
2018-09-13T11:40:34.759Z,99607.29
2018-09-13T11:43:03.161Z,99611.25
2018-09-13T11:45:31.704Z,99612.55
2018-09-13T11:48:00.216Z,99607.55
2018-09-13T11:50:28.911Z,99611.87
2018-09-13T11:52:57.748Z,99613.45
2018-09-13T11:55:26.629Z,99610.88
2018-09-13T11:57:57.082Z,99609.99
2018-09-13T12:00:25.834Z,99609.99
2018-09-13T12:02:54.404Z,99610.19
2018-09-13T12:05:22.961Z,99611.54
2018-09-13T12:07:51.580Z,99613.07
2018-09-13T12:10:20.098Z,99619.61
2018-09-13T12:12:49.576Z,99618.27
2018-09-13T12:15:18.105Z,99616.11
2018-09-13T12:17:46.695Z,99614.78
2018-09-13T12:20:15.192Z,99612.86
2018-09-13T12:22:43.735Z,99618.66
2018-09-13T12:25:13.386Z,99614.56
2018-09-13T12:27:43.840Z,99613.59
2018-09-13T12:30:13.240Z,99613.64
2018-09-13T12:32:44.473Z,99614.02
2018-09-13T12:35:16.424Z,99614.71
2018-09-13T12:37:49.433Z,99616.55
2018-09-13T12:40:23.842Z,99621.03
2018-09-13T12:42:56.208Z,99621.84
2018-09-13T12:45:29.413Z,99625.38
2018-09-13T12:48:03.743Z,99624.23
2018-09-13T12:50:34.296Z,99632.70
2018-09-13T12:53:06.692Z,99624.67
2018-09-13T12:55:43.811Z,99628.37
2018-09-13T12:58:14.069Z,99622.86
2018-09-13T13:00:48.700Z,99627.78
2018-09-13T13:03:22.233Z,99623.70
2018-09-13T13:05:52.784Z,99616.56
2018-09-13T13:08:22.942Z,99607.88
2018-09-13T13:10:53.334Z,99599.94
2018-09-13T13:13:30.282Z,99598.04
2018-09-13T13:16:05.474Z,99597.42
2018-09-13T13:18:37.817Z,99600.49
2018-09-13T13:21:11.142Z,99601.89
2018-09-13T13:23:44.099Z,99601.89
2018-09-13T13:26:14.186Z,99598.89
2018-09-13T13:28:42.774Z,99602.94
2018-09-13T13:31:16.093Z,99600.59
2018-09-13T13:33:51.318Z,99607.49
2018-09-13T13:36:22.915Z,99600.93
2018-09-13T13:38:55.208Z,99596.84
2018-09-13T13:41:30.277Z,99591.85
2018-09-13T13:44:02.156Z,99588.68
2018-09-13T13:46:35.353Z,99582.07
2018-09-13T13:49:05.049Z,99587.45
2018-09-13T13:51:40.077Z,99586.47
2018-09-13T13:54:14.337Z,99582.94
2018-09-13T13:56:46.218Z,99588.46
2018-09-13T13:59:16.532Z,99584.50
2018-09-13T14:01:47.497Z,99577.38
2018-09-13T14:04:20.448Z,99578.92
2018-09-13T14:06:53.971Z,99576.11
2018-09-13T14:09:27.792Z,99578.73
2018-09-13T14:11:57.928Z,99573.95
2018-09-13T14:14:29.647Z,99580.20
2018-09-13T14:17:00.855Z,99583.52
2018-09-13T14:19:32.885Z,99576.94
2018-09-13T14:22:09.882Z,99576.80
2018-09-13T14:24:47.006Z,99582.32
2018-09-13T14:27:15.652Z,99579.16
2018-09-13T14:29:48.672Z,99575.56
2018-09-13T14:32:22.665Z,99585.30
2018-09-13T14:34:55.474Z,99583.77
2018-09-13T14:37:29.697Z,99583.91
2018-09-13T14:40:02.900Z,99585.09
2018-09-13T14:42:34.593Z,99588.38
2018-09-13T14:45:04.519Z,99578.02
2018-09-13T14:47:35.987Z,99577.99
2018-09-13T14:50:10.952Z,99571.92
2018-09-13T14:52:41.208Z,99573.19
2018-09-13T14:55:11.193Z,99576.13
2018-09-13T14:57:39.808Z,99574.73
2018-09-13T15:00:12.786Z,99571.15
2018-09-13T15:02:44.992Z,99570.28
2018-09-13T15:05:18.775Z,99569.16
2018-09-13T15:07:50.439Z,99575.14
2018-09-13T15:10:21.621Z,99568.66
2018-09-13T15:12:54.315Z,99572.55
2018-09-13T15:15:26.896Z,99568.73
2018-09-13T15:17:57.316Z,99574.59
2018-09-13T15:20:29.108Z,99569.81
2018-09-13T15:23:03.440Z,99572.48
2018-09-13T15:25:32.151Z,99570.95
2018-09-13T15:28:00.738Z,99564.02
2018-09-13T15:30:29.293Z,99562.52
2018-09-13T15:34:01.038Z,99562.59
2018-09-13T15:36:33.802Z,99563.83
2018-09-13T15:39:10.748Z,99567.00
2018-09-13T15:41:40.927Z,99559.28
2018-09-13T15:44:12.423Z,99567.00
2018-09-13T15:46:41.673Z,99569.16
2018-09-13T15:49:15.206Z,99564.20
2018-09-13T15:51:50.260Z,99564.90
2018-09-13T15:54:20.953Z,99568.00
2018-09-13T15:56:49.787Z,99561.86
2018-09-13T15:59:18.849Z,99570.05
2018-09-13T16:01:47.548Z,99565.20
2018-09-13T16:04:19.310Z,99567.44
2018-09-13T16:06:48.588Z,99563.75
2018-09-13T16:09:19.285Z,99558.72
2018-09-13T16:11:49.548Z,99562.14
2018-09-13T16:14:18.066Z,99559.19
2018-09-13T16:16:46.706Z,99556.06
2018-09-13T16:19:20.346Z,99559.47
2018-09-13T16:21:50.620Z,99556.50
2018-09-13T16:24:26.704Z,99550.20
2018-09-13T16:26:55.921Z,99546.02
2018-09-13T16:29:27.437Z,99546.58
2018-09-13T16:32:00.583Z,99548.84
2018-09-13T16:34:29.517Z,99553.36
2018-09-13T16:37:11.205Z,99552.58
2018-09-13T16:39:44.864Z,99554.36
2018-09-13T16:42:18.720Z,99560.70
2018-09-13T16:44:53.740Z,99564.47
2018-09-13T16:47:29.268Z,99561.52
2018-09-13T16:49:58.744Z,99561.58
2018-09-13T16:52:28.040Z,99554.44
2018-09-13T16:55:02.988Z,99562.27
2018-09-13T16:57:31.528Z,99557.66
2018-09-13T17:00:00.048Z,99559.86
2018-09-13T17:02:28.608Z,99560.39
2018-09-13T17:04:57.924Z,99561.68
2018-09-13T17:07:26.567Z,99568.59
2018-09-13T17:09:55.092Z,99569.16
2018-09-13T17:12:24.485Z,99568.45
2018-09-13T17:14:53.082Z,99566.73
2018-09-13T17:17:21.636Z,99566.25
2018-09-13T17:19:50.236Z,99562.30
2018-09-13T17:22:18.784Z,99565.59
2018-09-13T17:24:47.409Z,99563.78
2018-09-13T17:27:16.036Z,99566.67
2018-09-13T17:29:51.128Z,99573.27
2018-09-13T17:32:20.116Z,99567.44
2018-09-13T17:34:48.707Z,99560.41
2018-09-13T17:37:17.251Z,99570.02
2018-09-13T17:39:46.053Z,99558.80
2018-09-13T17:42:14.740Z,99560.66
2018-09-13T17:44:43.308Z,99562.78
2018-09-13T17:47:11.828Z,99561.19
2018-09-13T17:49:40.381Z,99565.98
2018-09-13T17:52:09.053Z,99569.70
2018-09-13T17:54:37.608Z,99565.38
2018-09-13T17:57:06.289Z,99570.86
2018-09-13T17:59:34.844Z,99572.17
2018-09-13T18:02:03.364Z,99583.42
2018-09-13T18:04:31.945Z,99578.25
2018-09-13T18:07:00.510Z,99583.44
2018-09-13T18:09:29.077Z,99580.77
2018-09-13T18:11:57.877Z,99575.34
2018-09-13T18:14:26.412Z,99581.22
2018-09-13T18:16:54.917Z,99582.47
2018-09-13T18:19:26.220Z,99584.77
2018-09-13T18:21:54.784Z,99584.98
2018-09-13T18:24:23.325Z,99582.16
2018-09-13T18:26:51.848Z,99592.21
2018-09-13T18:29:20.406Z,99593.19
2018-09-13T18:31:50.486Z,99594.94
2018-09-13T18:34:19.024Z,99594.88
2018-09-13T18:36:47.541Z,99599.34
2018-09-13T18:39:16.091Z,99593.38
2018-09-13T18:41:44.600Z,99595.95
2018-09-13T18:44:13.140Z,99603.25
2018-09-13T18:46:41.660Z,99605.86
2018-09-13T18:49:10.203Z,99607.88
2018-09-13T18:51:38.732Z,99616.68
2018-09-13T18:54:07.292Z,99620.39
2018-09-13T18:56:35.840Z,99618.29
2018-09-13T18:59:04.657Z,99625.35
2018-09-13T19:01:33.321Z,99620.39
2018-09-13T19:04:01.872Z,99632.34
2018-09-13T19:06:30.420Z,99630.46
2018-09-13T19:08:58.967Z,99636.76
2018-09-13T19:11:27.745Z,99638.02
2018-09-13T19:13:56.301Z,99644.34
2018-09-13T19:16:25.276Z,99646.81
2018-09-13T19:18:58.833Z,99655.81
2018-09-13T19:21:28.606Z,99658.56
2018-09-13T19:23:58.537Z,99661.95
2018-09-13T19:26:27.808Z,99654.58
2018-09-13T19:28:56.317Z,99659.00
2018-09-13T19:31:24.877Z,99659.89
2018-09-13T19:33:54.914Z,99662.91
2018-09-13T19:36:26.474Z,99665.47
2018-09-13T19:38:55.751Z,99665.36
2018-09-13T19:41:25.065Z,99672.47
2018-09-13T19:43:54.771Z,99668.28
2018-09-13T19:46:24.125Z,99671.06
2018-09-13T19:48:54.169Z,99674.73
2018-09-13T19:51:22.804Z,99674.53
2018-09-13T19:53:56.031Z,99675.44
2018-09-13T19:56:36.289Z,99686.61
2018-09-13T19:59:08.296Z,99681.87
2018-09-13T20:01:41.556Z,99689.97
2018-09-13T20:04:10.612Z,99686.06
2018-09-13T20:06:42.501Z,99688.97
2018-09-13T20:09:12.500Z,99693.20
2018-09-13T20:11:44.636Z,99686.73
2018-09-13T20:14:22.184Z,99691.04
2018-09-13T20:16:50.919Z,99690.41
2018-09-13T20:19:20.493Z,99693.39
2018-09-13T20:21:49.940Z,99685.68
2018-09-13T20:24:25.759Z,99689.16
2018-09-13T20:26:55.069Z,99690.53
2018-09-13T20:29:24.821Z,99691.68
2018-09-13T20:32:05.334Z,99693.21
2018-09-13T20:34:40.096Z,99692.00
2018-09-13T20:37:16.551Z,99693.50
2018-09-13T20:39:47.544Z,99698.81
2018-09-13T20:42:16.291Z,99693.52
2018-09-13T20:44:49.620Z,99700.08
2018-09-13T20:47:20.423Z,99702.86
2018-09-13T20:49:50.929Z,99699.20
2018-09-13T20:52:19.588Z,99696.33
2018-09-13T20:54:53.574Z,99694.00
2018-09-13T20:57:27.934Z,99695.23
2018-09-13T21:00:02.681Z,99690.84
2018-09-13T21:02:34.492Z,99694.95
2018-09-13T21:05:03.916Z,99698.22
2018-09-13T21:07:33.572Z,99704.66
2018-09-13T21:10:10.475Z,99696.03
2018-09-13T21:12:41.834Z,99705.52
2018-09-13T21:15:14.161Z,99700.13
2018-09-13T21:17:43.620Z,99698.27
2018-09-13T21:20:16.232Z,99698.73
2018-09-13T21:22:46.279Z,99702.75
2018-09-13T21:25:17.757Z,99706.85
2018-09-13T21:27:46.372Z,99713.03
2018-09-13T21:30:14.907Z,99704.73
2018-09-13T21:32:45.567Z,99712.57
2018-09-13T21:35:15.597Z,99709.84
2018-09-13T21:37:46.035Z,99707.44
2018-09-13T21:40:19.627Z,99705.66
2018-09-13T21:42:51.242Z,99708.55
2018-09-13T21:45:22.408Z,99698.88
2018-09-13T21:47:51.699Z,99704.03
2018-09-13T21:50:23.957Z,99698.94
2018-09-13T21:52:55.375Z,99706.39
2018-09-13T21:55:28.037Z,99707.97
2018-09-13T21:57:58.625Z,99712.66
2018-09-13T22:00:29.447Z,99713.36
2018-09-13T22:03:01.528Z,99716.88
2018-09-13T22:05:31.208Z,99714.94
2018-09-13T22:08:01.546Z,99718.46
2018-09-13T22:10:33.756Z,99715.59
2018-09-13T22:13:06.438Z,99717.05
2018-09-13T22:15:38.032Z,99717.50
2018-09-13T22:18:11.206Z,99717.33
2018-09-13T22:20:45.637Z,99716.80
2018-09-13T22:23:17.649Z,99714.23
2018-09-13T22:25:46.882Z,99720.41
2018-09-13T22:28:15.689Z,99720.06
2018-09-13T22:30:47.900Z,99720.56
2018-09-13T22:33:22.216Z,99715.75
2018-09-13T22:35:55.444Z,99721.64
2018-09-13T22:38:26.471Z,99721.02
2018-09-13T22:40:55.947Z,99717.50
2018-09-13T22:43:34.690Z,99712.23
2018-09-13T22:46:05.944Z,99721.27
2018-09-13T22:48:40.337Z,99719.11
2018-09-13T22:51:13.359Z,99725.00
2018-09-13T22:53:47.201Z,99718.86
2018-09-13T22:56:17.677Z,99722.47
2018-09-13T22:58:50.195Z,99721.42
2018-09-13T23:01:21.124Z,99717.31
2018-09-13T23:03:53.594Z,99721.17
2018-09-13T23:06:22.947Z,99727.84
2018-09-13T23:08:54.451Z,99723.86
2018-09-13T23:11:24.748Z,99726.13
2018-09-13T23:13:55.421Z,99720.56
2018-09-13T23:16:27.790Z,99725.78
2018-09-13T23:18:57.673Z,99725.02
2018-09-13T23:21:26.835Z,99728.66
2018-09-13T23:23:55.423Z,99724.48
2018-09-13T23:26:25.339Z,99725.45
2018-09-13T23:28:54.629Z,99721.45
2018-09-13T23:31:23.152Z,99717.14
2018-09-13T23:33:51.706Z,99719.27
2018-09-13T23:36:26.850Z,99714.61
2018-09-13T23:38:55.467Z,99708.44
2018-09-13T23:41:23.988Z,99710.27
2018-09-13T23:43:53.644Z,99715.55
2018-09-13T23:46:22.179Z,99713.65
2018-09-13T23:48:50.725Z,99713.39
2018-09-13T23:51:19.240Z,99701.81
2018-09-13T23:53:47.825Z,99714.26
2018-09-13T23:56:16.375Z,99711.95
2018-09-13T23:58:44.936Z,99722.08
